ΕΜΥ, Εθνική Μετεωρολογική Υπηρεσία - Δελτία Καιρού, Προγνώσεις

ΑΕΡΟΝΑΥΤΙΛΙΑ

GREEK AIRPORTS CODES

LGKY 190900Z 32011KT CAVOK 26/16 Q1009 RMK HAND WIND ANEMOMETER OBSERVATION=

EUROPEAN AIRPORTS CODES

LFPO 192030Z 23004KT CAVOK 24/11 Q1012 NOSIG=